createdAt,value
2023-01-17T00:00:12.764Z,54.17
2023-01-17T00:01:12.678Z,56.45
2023-01-17T00:02:12.697Z,53.65
2023-01-17T00:03:12.692Z,57.36
2023-01-17T00:04:12.732Z,53.15
2023-01-17T00:05:12.670Z,55.91
2023-01-17T00:06:12.677Z,56.42
2023-01-17T00:07:12.659Z,57.15
2023-01-17T00:08:12.652Z,57.27
2023-01-17T00:09:12.639Z,54.95
2023-01-17T00:10:12.644Z,55.73
2023-01-17T00:11:12.644Z,57.17
2023-01-17T00:12:12.608Z,56.19
2023-01-17T00:13:12.619Z,54.68
2023-01-17T00:14:12.600Z,55.48
2023-01-17T00:15:12.600Z,55.87
2023-01-17T00:16:12.617Z,56.12
2023-01-17T00:17:12.597Z,55.17
2023-01-17T00:18:12.572Z,54.47
2023-01-17T00:19:12.571Z,55.73
2023-01-17T00:20:12.565Z,52.30
2023-01-17T00:21:12.551Z,52.86
2023-01-17T00:22:12.567Z,54.33
2023-01-17T00:23:12.560Z,51.54
2023-01-17T00:24:12.535Z,56.27
2023-01-17T00:25:12.526Z,54.02
2023-01-17T00:26:12.523Z,51.85
2023-01-17T00:27:12.537Z,52.86
2023-01-17T00:28:12.527Z,55.38
2023-01-17T00:29:12.488Z,49.72
2023-01-17T00:30:12.506Z,46.73
2023-01-17T00:31:12.553Z,51.79
2023-01-17T00:32:12.497Z,49.56
2023-01-17T00:33:12.482Z,49.64
2023-01-17T00:34:12.468Z,50.77
2023-01-17T00:35:12.561Z,50.43
2023-01-17T00:36:12.470Z,49.64
2023-01-17T00:37:12.452Z,51.35
2023-01-17T00:38:12.466Z,54.60
2023-01-17T00:39:12.435Z,54.54
2023-01-17T00:40:12.437Z,55.96
2023-01-17T00:41:12.430Z,47.76
2023-01-17T00:42:12.414Z,51.97
2023-01-17T00:43:12.419Z,49.36
2023-01-17T00:44:12.410Z,51.04
2023-01-17T00:45:12.405Z,51.60
2023-01-17T00:46:12.472Z,50.98
2023-01-17T00:47:12.385Z,54.42
2023-01-17T00:48:12.388Z,54.30
2023-01-17T00:49:12.380Z,48.03
2023-01-17T00:50:12.366Z,52.48
2023-01-17T00:51:12.366Z,54.79
2023-01-17T00:52:12.356Z,53.09
2023-01-17T00:53:12.352Z,49.76
2023-01-17T00:54:12.412Z,52.99
2023-01-17T00:55:12.346Z,53.35
2023-01-17T00:56:12.335Z,53.07
2023-01-17T00:57:12.336Z,47.27
2023-01-17T00:58:12.374Z,50.84
2023-01-17T00:59:12.309Z,52.16
2023-01-17T01:00:12.307Z,46.91
2023-01-17T01:01:12.321Z,50.73
2023-01-17T01:02:12.397Z,50.33
2023-01-17T01:03:12.286Z,46.74
2023-01-17T01:04:12.286Z,54.48
2023-01-17T01:05:12.259Z,48.63
2023-01-17T01:06:12.258Z,48.97
2023-01-17T01:07:13.255Z,56.29
2023-01-17T01:08:12.253Z,53.84
2023-01-17T01:09:12.268Z,54.31
2023-01-17T01:10:12.236Z,50.72
2023-01-17T01:11:12.234Z,51.75
2023-01-17T01:12:12.225Z,48.50
2023-01-17T01:13:12.222Z,52.65
2023-01-17T01:14:12.209Z,49.27
2023-01-17T01:15:12.208Z,48.00
2023-01-17T01:16:12.232Z,50.10
2023-01-17T01:17:12.211Z,53.35
2023-01-17T01:18:12.192Z,49.65
2023-01-17T01:19:12.182Z,52.34
2023-01-17T01:20:12.173Z,52.52
2023-01-17T01:21:12.167Z,47.28
2023-01-17T01:22:12.180Z,53.33
2023-01-17T01:23:12.148Z,51.75
2023-01-17T01:24:12.138Z,52.92
2023-01-17T01:25:12.134Z,49.36
2023-01-17T01:26:12.136Z,51.76
2023-01-17T01:27:12.143Z,46.92
2023-01-17T01:28:12.148Z,48.33
2023-01-17T01:29:12.107Z,55.04
2023-01-17T01:30:12.102Z,52.78
2023-01-17T01:31:12.163Z,52.23
2023-01-17T01:32:12.133Z,49.74
2023-01-17T01:33:12.088Z,47.60
2023-01-17T01:34:12.082Z,49.47
2023-01-17T01:35:12.063Z,54.34
2023-01-17T01:36:12.061Z,54.61
2023-01-17T01:37:12.061Z,53.37
2023-01-17T01:38:12.052Z,49.82
2023-01-17T01:39:12.042Z,53.53
2023-01-17T01:40:12.072Z,50.44
2023-01-17T01:41:12.055Z,52.62
2023-01-17T01:42:12.017Z,50.67
2023-01-17T01:43:12.028Z,52.41
2023-01-17T01:44:12.013Z,49.41
2023-01-17T01:45:12.030Z,53.97
2023-01-17T01:46:12.001Z,51.70
2023-01-17T01:47:11.996Z,52.92
2023-01-17T01:48:11.989Z,50.62
2023-01-17T01:49:11.981Z,55.57
2023-01-17T01:50:11.991Z,50.96
2023-01-17T01:51:11.990Z,51.39
2023-01-17T01:52:11.994Z,51.53
2023-01-17T01:53:11.960Z,58.00
2023-01-17T01:54:11.942Z,54.03
2023-01-17T01:55:11.948Z,53.78
2023-01-17T01:56:11.943Z,51.04
2023-01-17T01:57:11.923Z,54.65
2023-01-17T01:58:11.920Z,55.76
2023-01-17T01:59:11.906Z,54.57
2023-01-17T02:00:11.931Z,54.56
2023-01-17T02:01:12.006Z,53.47
2023-01-17T02:02:11.905Z,52.56
2023-01-17T02:03:11.885Z,48.00
2023-01-17T02:04:11.943Z,51.10
2023-01-17T02:05:11.869Z,56.71
2023-01-17T02:06:11.884Z,53.79
2023-01-17T02:07:11.869Z,52.27
2023-01-17T02:08:11.854Z,51.15
2023-01-17T02:09:11.852Z,50.14
2023-01-17T02:10:11.856Z,53.51
2023-01-17T02:11:11.863Z,51.30
2023-01-17T02:12:11.837Z,53.12
2023-01-17T02:13:11.842Z,51.91
2023-01-17T02:14:11.817Z,53.44
2023-01-17T02:15:11.804Z,51.21
2023-01-17T02:16:11.809Z,51.11
2023-01-17T02:17:11.815Z,58.14
2023-01-17T02:18:11.793Z,54.76
2023-01-17T02:19:11.772Z,50.28
2023-01-17T02:20:11.782Z,52.08
2023-01-17T02:21:11.773Z,53.65
2023-01-17T02:22:11.799Z,55.81
2023-01-17T02:23:11.752Z,57.96
2023-01-17T02:24:11.750Z,51.52
2023-01-17T02:25:11.755Z,54.39
2023-01-17T02:26:11.751Z,54.05
2023-01-17T02:27:11.735Z,54.38
2023-01-17T02:28:11.742Z,53.69
2023-01-17T02:29:11.721Z,55.74
2023-01-17T02:30:12.744Z,54.62
2023-01-17T02:31:11.707Z,51.12
2023-01-17T02:32:11.706Z,49.49
2023-01-17T02:33:11.696Z,51.23
2023-01-17T02:34:11.694Z,54.72
2023-01-17T02:35:11.679Z,52.85
2023-01-17T02:36:11.705Z,55.13
2023-01-17T02:37:11.667Z,55.65
2023-01-17T02:38:11.675Z,55.11
2023-01-17T02:39:11.655Z,53.69
2023-01-17T02:40:11.650Z,55.56
2023-01-17T02:41:11.653Z,52.97
2023-01-17T02:42:11.624Z,51.67
2023-01-17T02:43:11.666Z,50.90
2023-01-17T02:44:11.634Z,50.56
2023-01-17T02:45:11.608Z,50.91
2023-01-17T02:46:11.698Z,54.98
2023-01-17T02:47:11.599Z,53.06
2023-01-17T02:48:11.752Z,52.31
2023-01-17T02:49:11.606Z,55.09
2023-01-17T02:50:11.591Z,52.18
2023-01-17T02:51:11.581Z,57.57
2023-01-17T02:52:11.580Z,53.89
2023-01-17T02:53:11.564Z,53.81
2023-01-17T02:54:11.575Z,54.74
2023-01-17T02:55:11.552Z,56.74
2023-01-17T02:56:11.551Z,51.37
2023-01-17T02:57:11.533Z,56.35
2023-01-17T02:58:11.571Z,54.63
2023-01-17T02:59:11.536Z,53.40
2023-01-17T03:00:11.520Z,52.81
2023-01-17T03:01:11.557Z,54.41
2023-01-17T03:02:11.682Z,53.17
2023-01-17T03:03:11.495Z,56.27
2023-01-17T03:04:11.498Z,53.63
2023-01-17T03:05:11.490Z,51.46
2023-01-17T03:06:11.505Z,55.85
2023-01-17T03:07:11.470Z,57.18
2023-01-17T03:08:11.462Z,55.71
2023-01-17T03:09:11.454Z,51.29
2023-01-17T03:10:11.474Z,51.45
2023-01-17T03:11:11.444Z,55.43
2023-01-17T03:12:11.432Z,54.33
2023-01-17T03:13:11.430Z,52.03
2023-01-17T03:14:11.436Z,51.14
2023-01-17T03:15:11.425Z,51.64
2023-01-17T03:16:12.787Z,56.60
2023-01-17T03:17:12.413Z,57.46
2023-01-17T03:18:11.402Z,53.42
2023-01-17T03:19:11.396Z,53.65
2023-01-17T03:20:11.388Z,56.42
2023-01-17T03:21:11.408Z,55.82
2023-01-17T03:22:11.373Z,54.18
2023-01-17T03:23:11.368Z,57.12
2023-01-17T03:24:11.356Z,57.63
2023-01-17T03:25:11.358Z,53.40
2023-01-17T03:26:11.363Z,54.87
2023-01-17T03:27:11.350Z,59.81
2023-01-17T03:28:11.333Z,54.67
2023-01-17T03:29:11.322Z,54.01
2023-01-17T03:30:11.322Z,54.89
2023-01-17T03:31:11.350Z,57.03
2023-01-17T03:32:11.306Z,59.20
2023-01-17T03:33:11.302Z,56.19
2023-01-17T03:34:11.286Z,54.36
2023-01-17T03:35:11.281Z,56.14
2023-01-17T03:36:11.282Z,52.49
2023-01-17T03:37:11.286Z,56.78
2023-01-17T03:38:11.265Z,55.35
2023-01-17T03:39:11.272Z,55.62
2023-01-17T03:40:11.259Z,56.12
2023-01-17T03:41:11.252Z,53.31
2023-01-17T03:42:11.253Z,57.59
2023-01-17T03:43:11.236Z,54.49
2023-01-17T03:44:11.228Z,54.57
2023-01-17T03:45:11.233Z,56.14
2023-01-17T03:46:11.266Z,57.17
2023-01-17T03:47:11.205Z,58.35
2023-01-17T03:48:11.224Z,55.77
2023-01-17T03:49:11.207Z,56.37
2023-01-17T03:50:11.199Z,55.59
2023-01-17T03:51:11.180Z,56.41
2023-01-17T03:52:11.181Z,59.61
2023-01-17T03:53:12.179Z,55.32
2023-01-17T03:54:11.174Z,54.52
2023-01-17T03:55:11.170Z,55.89
2023-01-17T03:56:11.148Z,55.01
2023-01-17T03:57:11.147Z,57.22
2023-01-17T03:58:11.135Z,56.80
2023-01-17T03:59:13.143Z,59.37
2023-01-17T04:00:12.137Z,57.50
2023-01-17T04:01:11.250Z,58.23
2023-01-17T04:02:11.224Z,56.13
2023-01-17T04:03:11.107Z,58.42
2023-01-17T04:04:11.105Z,55.22
2023-01-17T04:05:11.098Z,57.78
2023-01-17T04:06:11.097Z,59.69
2023-01-17T04:07:11.091Z,58.15
2023-01-17T04:08:11.082Z,56.36
2023-01-17T04:09:11.060Z,56.97
2023-01-17T04:10:11.076Z,57.35
2023-01-17T04:11:11.080Z,59.85
2023-01-17T04:12:11.082Z,56.08
2023-01-17T04:13:11.073Z,58.24
2023-01-17T04:14:11.072Z,58.16
2023-01-17T04:15:11.021Z,58.25
2023-01-17T04:16:11.040Z,59.87
2023-01-17T04:17:11.028Z,59.45
2023-01-17T04:18:11.019Z,57.61
2023-01-17T04:19:11.027Z,57.20
2023-01-17T04:20:11.040Z,58.23
2023-01-17T04:21:10.982Z,60.75
2023-01-17T04:22:10.987Z,60.93
2023-01-17T04:23:10.968Z,61.33
2023-01-17T04:24:11.033Z,59.87
2023-01-17T04:25:10.968Z,59.95
2023-01-17T04:26:10.954Z,61.35
2023-01-17T04:27:10.960Z,60.95
2023-01-17T04:28:10.947Z,62.12
2023-01-17T04:29:10.934Z,59.70
2023-01-17T04:30:10.932Z,60.43
2023-01-17T04:31:11.995Z,59.97
2023-01-17T04:32:10.941Z,61.22
2023-01-17T04:33:10.904Z,61.47
2023-01-17T04:34:10.924Z,60.47
2023-01-17T04:35:10.887Z,61.19
2023-01-17T04:36:10.884Z,62.77
2023-01-17T04:37:10.887Z,62.70
2023-01-17T04:38:10.879Z,61.86
2023-01-17T04:39:11.881Z,61.15
2023-01-17T04:40:10.857Z,60.08
2023-01-17T04:41:10.876Z,63.41
2023-01-17T04:42:10.852Z,63.55
2023-01-17T04:43:10.838Z,61.93
2023-01-17T04:44:10.843Z,63.25
2023-01-17T04:45:10.842Z,62.72
2023-01-17T04:46:11.861Z,62.88
2023-01-17T04:47:10.820Z,62.16
2023-01-17T04:48:10.813Z,62.94
2023-01-17T04:49:10.822Z,63.33
2023-01-17T04:50:10.827Z,62.86
2023-01-17T04:51:10.802Z,62.36
2023-01-17T04:52:10.790Z,62.62
2023-01-17T04:53:10.774Z,62.04
2023-01-17T04:54:10.784Z,62.97
2023-01-17T04:55:10.776Z,60.40
2023-01-17T04:56:10.766Z,61.89
2023-01-17T04:57:10.755Z,60.44
2023-01-17T04:58:10.755Z,61.01
2023-01-17T04:59:10.747Z,58.90
2023-01-17T05:00:10.769Z,59.76
2023-01-17T05:01:10.828Z,62.48
2023-01-17T05:02:10.778Z,60.66
2023-01-17T05:03:10.792Z,60.38
2023-01-17T05:04:10.726Z,61.38
2023-01-17T05:05:10.707Z,61.53
2023-01-17T05:06:10.710Z,61.97
2023-01-17T05:07:10.693Z,62.74
2023-01-17T05:08:10.689Z,63.06
2023-01-17T05:09:10.692Z,61.83
2023-01-17T05:10:10.687Z,63.40
2023-01-17T05:11:10.669Z,65.79
2023-01-17T05:12:10.654Z,61.84
2023-01-17T05:13:10.648Z,63.04
2023-01-17T05:14:10.636Z,62.79
2023-01-17T05:15:10.621Z,63.47
2023-01-17T05:16:10.682Z,61.71
2023-01-17T05:17:10.625Z,62.19
2023-01-17T05:18:10.621Z,63.73
2023-01-17T05:19:10.619Z,61.52
2023-01-17T05:20:10.610Z,61.98
2023-01-17T05:21:10.599Z,62.04
2023-01-17T05:22:10.591Z,63.88
2023-01-17T05:23:10.614Z,63.75
2023-01-17T05:24:10.599Z,62.18
2023-01-17T05:25:10.581Z,61.30
2023-01-17T05:26:10.590Z,61.57
2023-01-17T05:27:10.558Z,62.29
2023-01-17T05:28:10.568Z,62.71
2023-01-17T05:29:10.661Z,61.22
2023-01-17T05:30:10.540Z,61.48
2023-01-17T05:31:10.608Z,62.24
2023-01-17T05:32:10.552Z,64.14
2023-01-17T05:33:10.537Z,63.37
2023-01-17T05:34:10.528Z,63.54
2023-01-17T05:35:10.502Z,64.00
2023-01-17T05:36:10.507Z,63.15
2023-01-17T05:37:10.496Z,63.56
2023-01-17T05:38:10.485Z,64.01
2023-01-17T05:39:10.511Z,64.71
2023-01-17T05:40:10.482Z,64.34
2023-01-17T05:41:10.461Z,64.08
2023-01-17T05:42:10.472Z,63.80
2023-01-17T05:43:10.461Z,63.22
2023-01-17T05:44:10.470Z,64.48
2023-01-17T05:45:10.485Z,63.55
2023-01-17T05:46:10.528Z,64.48
2023-01-17T05:47:10.445Z,64.11
2023-01-17T05:48:10.423Z,64.10
2023-01-17T05:49:10.436Z,64.74
2023-01-17T05:50:10.433Z,63.70
2023-01-17T05:51:10.417Z,64.90
2023-01-17T05:52:10.405Z,63.66
2023-01-17T05:53:10.393Z,64.14
2023-01-17T05:54:10.386Z,63.63
2023-01-17T05:55:10.387Z,63.21
2023-01-17T05:56:10.395Z,63.61
2023-01-17T05:57:10.376Z,63.89
2023-01-17T05:58:10.356Z,63.03
2023-01-17T05:59:12.072Z,63.34
2023-01-17T06:00:10.353Z,63.19
2023-01-17T06:01:10.418Z,64.54
2023-01-17T06:02:10.362Z,62.95
2023-01-17T06:03:10.355Z,63.25
2023-01-17T06:04:10.341Z,63.65
2023-01-17T06:05:10.323Z,63.90
2023-01-17T06:06:10.314Z,63.60
2023-01-17T06:07:10.361Z,64.54
2023-01-17T06:08:10.297Z,63.17
2023-01-17T06:09:10.285Z,62.98
2023-01-17T06:10:10.282Z,62.64
2023-01-17T06:11:10.277Z,63.67
2023-01-17T06:12:10.281Z,63.89
2023-01-17T06:13:10.265Z,64.12
2023-01-17T06:14:10.255Z,62.30
2023-01-17T06:15:10.249Z,63.46
2023-01-17T06:16:10.281Z,63.39
2023-01-17T06:17:10.246Z,62.98
2023-01-17T06:18:10.232Z,63.82
2023-01-17T06:19:10.218Z,62.52
2023-01-17T06:20:10.259Z,62.83
2023-01-17T06:21:10.203Z,62.69
2023-01-17T06:22:10.209Z,63.95
2023-01-17T06:23:10.189Z,64.78
2023-01-17T06:24:10.189Z,63.21
2023-01-17T06:25:10.210Z,62.93
2023-01-17T06:26:10.177Z,64.44
2023-01-17T06:27:10.168Z,63.54
2023-01-17T06:28:10.172Z,63.52
2023-01-17T06:29:10.149Z,63.24
2023-01-17T06:30:10.179Z,63.43
2023-01-17T06:31:10.173Z,63.98
2023-01-17T06:32:10.142Z,64.32
2023-01-17T06:33:10.132Z,65.11
2023-01-17T06:34:10.129Z,63.73
2023-01-17T06:35:10.118Z,63.59
2023-01-17T06:36:10.133Z,63.12
2023-01-17T06:37:10.114Z,63.89
2023-01-17T06:38:10.082Z,65.51
2023-01-17T06:39:10.089Z,63.94
2023-01-17T06:40:10.174Z,63.93
2023-01-17T06:41:10.101Z,64.70
2023-01-17T06:42:10.265Z,63.68
2023-01-17T06:43:10.058Z,64.21
2023-01-17T06:44:10.078Z,65.46
2023-01-17T06:45:10.053Z,65.14
2023-01-17T06:46:10.100Z,64.67
2023-01-17T06:47:10.072Z,63.47
2023-01-17T06:48:11.058Z,62.95
2023-01-17T06:49:10.019Z,63.64
2023-01-17T06:50:10.051Z,64.23
2023-01-17T06:51:10.017Z,63.28
2023-01-17T06:52:10.002Z,62.27
2023-01-17T06:53:10.040Z,64.17
2023-01-17T06:54:09.981Z,64.79
2023-01-17T06:55:09.991Z,65.68
2023-01-17T06:56:09.973Z,63.73
2023-01-17T06:57:09.963Z,63.43
2023-01-17T06:58:09.996Z,64.02
2023-01-17T06:59:09.959Z,62.79
2023-01-17T07:00:09.959Z,63.85
2023-01-17T07:01:09.970Z,63.58
2023-01-17T07:02:09.930Z,63.97
2023-01-17T07:03:09.961Z,63.58
2023-01-17T07:04:09.941Z,62.96
2023-01-17T07:05:09.923Z,62.69
2023-01-17T07:06:09.906Z,63.38
2023-01-17T07:07:09.909Z,62.71
2023-01-17T07:08:09.898Z,61.71
2023-01-17T07:09:09.890Z,63.86
2023-01-17T07:10:09.900Z,61.64
2023-01-17T07:11:09.882Z,63.97
2023-01-17T07:12:09.896Z,64.05
2023-01-17T07:13:09.879Z,63.54
2023-01-17T07:14:09.857Z,63.95
2023-01-17T07:15:09.881Z,63.36
2023-01-17T07:16:09.933Z,61.13
2023-01-17T07:17:09.842Z,62.13
2023-01-17T07:18:09.853Z,62.09
2023-01-17T07:19:09.830Z,63.99
2023-01-17T07:20:09.835Z,62.47
2023-01-17T07:21:09.907Z,63.14
2023-01-17T07:22:09.807Z,61.87
2023-01-17T07:23:09.796Z,63.44
2023-01-17T07:24:09.784Z,63.63
2023-01-17T07:25:10.805Z,62.93
2023-01-17T07:26:09.784Z,62.95
2023-01-17T07:27:09.768Z,61.33
2023-01-17T07:28:10.770Z,61.57
2023-01-17T07:29:09.853Z,62.40
2023-01-17T07:30:09.783Z,62.44
2023-01-17T07:31:09.880Z,62.71
2023-01-17T07:32:09.739Z,63.20
2023-01-17T07:33:09.743Z,61.99
2023-01-17T07:34:09.747Z,63.84
2023-01-17T07:35:09.718Z,63.30
2023-01-17T07:36:09.731Z,61.66
2023-01-17T07:37:09.703Z,64.41
2023-01-17T07:38:09.705Z,62.86
2023-01-17T07:39:09.709Z,64.47
2023-01-17T07:40:09.694Z,62.91
2023-01-17T07:41:11.075Z,62.36
2023-01-17T07:42:10.681Z,62.16
2023-01-17T07:43:09.669Z,61.31
2023-01-17T07:44:09.665Z,62.20
2023-01-17T07:45:09.661Z,61.95
2023-01-17T07:46:09.665Z,63.03
2023-01-17T07:47:09.667Z,63.15
2023-01-17T07:48:09.640Z,63.83
2023-01-17T07:49:09.630Z,61.54
2023-01-17T07:50:09.630Z,62.42
2023-01-17T07:51:09.628Z,60.56
2023-01-17T07:52:09.626Z,60.78
2023-01-17T07:53:09.596Z,62.09
2023-01-17T07:54:09.600Z,63.11
2023-01-17T07:55:09.605Z,62.51
2023-01-17T07:56:09.589Z,63.19
2023-01-17T07:57:09.593Z,62.57
2023-01-17T07:58:09.572Z,62.56
2023-01-17T07:59:09.563Z,61.28
2023-01-17T08:00:09.559Z,61.06
2023-01-17T08:01:09.680Z,61.22
2023-01-17T08:02:09.572Z,64.25
2023-01-17T08:03:09.538Z,61.21
2023-01-17T08:04:09.586Z,62.52
2023-01-17T08:05:09.524Z,61.12
2023-01-17T08:06:09.550Z,61.11
2023-01-17T08:07:09.525Z,61.50
2023-01-17T08:08:09.502Z,62.32
2023-01-17T08:09:09.502Z,62.69
2023-01-17T08:10:09.504Z,61.95
2023-01-17T08:11:09.488Z,63.06
2023-01-17T08:12:09.492Z,62.49
2023-01-17T08:13:09.496Z,60.17
2023-01-17T08:14:09.469Z,60.49
2023-01-17T08:15:09.461Z,59.13
2023-01-17T08:16:09.466Z,59.78
2023-01-17T08:17:09.450Z,59.60
2023-01-17T08:18:09.437Z,60.25
2023-01-17T08:19:09.435Z,61.61
2023-01-17T08:20:09.429Z,60.80
2023-01-17T08:21:09.421Z,60.59
2023-01-17T08:22:09.424Z,61.88
2023-01-17T08:23:09.422Z,60.73
2023-01-17T08:24:09.413Z,62.10
2023-01-17T08:25:09.402Z,60.58
2023-01-17T08:26:09.383Z,59.74
2023-01-17T08:27:09.381Z,60.41
2023-01-17T08:28:09.382Z,63.43
2023-01-17T08:29:09.423Z,59.77
2023-01-17T08:30:09.365Z,60.68
2023-01-17T08:31:09.372Z,59.94
2023-01-17T08:32:09.348Z,60.32
2023-01-17T08:33:10.343Z,59.97
2023-01-17T08:34:09.404Z,59.27
2023-01-17T08:35:09.352Z,61.49
2023-01-17T08:36:09.312Z,60.68
2023-01-17T08:37:09.328Z,59.87
2023-01-17T08:38:09.316Z,58.64
2023-01-17T08:39:09.303Z,60.42
2023-01-17T08:40:09.319Z,60.68
2023-01-17T08:41:09.294Z,61.32
2023-01-17T08:42:09.281Z,60.73
2023-01-17T08:43:09.272Z,60.03
2023-01-17T08:44:09.274Z,60.66
2023-01-17T08:45:09.289Z,60.59
2023-01-17T08:46:09.341Z,60.22
2023-01-17T08:47:09.262Z,62.42
2023-01-17T08:48:09.241Z,59.17
2023-01-17T08:49:09.231Z,59.61
2023-01-17T08:50:09.247Z,59.75
2023-01-17T08:51:09.244Z,59.46
2023-01-17T08:52:09.231Z,59.28
2023-01-17T08:53:09.214Z,60.04
2023-01-17T08:54:09.207Z,60.84
2023-01-17T08:55:09.223Z,60.74
2023-01-17T08:56:09.198Z,59.43
2023-01-17T08:57:09.202Z,59.73
2023-01-17T08:58:09.186Z,60.56
2023-01-17T08:59:09.173Z,60.85
2023-01-17T09:00:09.187Z,61.14
2023-01-17T09:01:09.300Z,61.21
2023-01-17T09:02:09.342Z,60.48
2023-01-17T09:03:09.149Z,58.78
2023-01-17T09:04:09.249Z,61.26
2023-01-17T09:05:09.143Z,59.95
2023-01-17T09:06:09.151Z,61.68
2023-01-17T09:07:09.130Z,61.02
2023-01-17T09:08:09.129Z,59.96
2023-01-17T09:09:09.106Z,60.60
2023-01-17T09:10:09.101Z,59.73
2023-01-17T09:11:09.104Z,59.98
2023-01-17T09:12:10.090Z,60.13
2023-01-17T09:13:09.091Z,60.22
2023-01-17T09:14:09.081Z,59.64
2023-01-17T09:15:09.057Z,61.13
2023-01-17T09:16:09.108Z,59.90
2023-01-17T09:17:09.125Z,59.55
2023-01-17T09:18:09.053Z,60.50
2023-01-17T09:19:09.049Z,60.56
2023-01-17T09:20:09.039Z,59.90
2023-01-17T09:21:09.034Z,61.04
2023-01-17T09:22:09.055Z,60.75
2023-01-17T09:23:09.837Z,60.31
2023-01-17T09:24:09.025Z,62.66
2023-01-17T09:25:09.021Z,61.11
2023-01-17T09:26:09.000Z,60.07
2023-01-17T09:27:08.993Z,59.36
2023-01-17T09:28:08.993Z,60.78
2023-01-17T09:29:09.014Z,61.02
2023-01-17T09:30:08.965Z,61.77
2023-01-17T09:31:09.006Z,59.88
2023-01-17T09:32:08.972Z,61.89
2023-01-17T09:33:08.953Z,61.72
2023-01-17T09:34:08.949Z,62.36
2023-01-17T09:35:08.954Z,59.91
2023-01-17T09:36:08.939Z,62.55
2023-01-17T09:37:08.921Z,61.22
2023-01-17T09:38:08.917Z,60.58
2023-01-17T09:39:08.917Z,61.72
2023-01-17T09:40:08.929Z,59.20
2023-01-17T09:41:08.909Z,59.46
2023-01-17T09:42:08.899Z,59.89
2023-01-17T09:43:08.881Z,58.76
2023-01-17T09:44:08.878Z,60.83
2023-01-17T09:45:08.879Z,60.22
2023-01-17T09:46:08.924Z,60.82
2023-01-17T09:47:08.891Z,60.65
2023-01-17T09:48:08.860Z,59.26
2023-01-17T09:49:08.848Z,60.48
2023-01-17T09:50:08.852Z,62.05
2023-01-17T09:51:08.850Z,60.11
2023-01-17T09:52:08.833Z,59.27
2023-01-17T09:53:08.837Z,59.97
2023-01-17T09:54:08.825Z,60.59
2023-01-17T09:55:08.814Z,61.86
2023-01-17T09:56:08.813Z,61.22
2023-01-17T09:57:08.801Z,59.39
2023-01-17T09:58:08.801Z,60.53
2023-01-17T09:59:08.786Z,59.02
2023-01-17T10:00:08.796Z,58.03
2023-01-17T10:01:08.905Z,57.46
2023-01-17T10:02:08.997Z,56.73
2023-01-17T10:03:08.847Z,57.31
2023-01-17T10:04:08.829Z,59.19
2023-01-17T10:05:08.843Z,59.02
2023-01-17T10:06:08.752Z,57.59
2023-01-17T10:07:08.729Z,61.06
2023-01-17T10:08:08.748Z,60.04
2023-01-17T10:09:08.783Z,61.87
2023-01-17T10:10:08.771Z,61.58
2023-01-17T10:11:08.728Z,59.96
2023-01-17T10:12:08.700Z,61.26
2023-01-17T10:13:08.709Z,60.47
2023-01-17T10:14:08.688Z,57.53
2023-01-17T10:15:08.709Z,58.07
2023-01-17T10:16:08.671Z,57.88
2023-01-17T10:17:08.652Z,57.16
2023-01-17T10:18:10.145Z,56.55
2023-01-17T10:19:08.678Z,56.80
2023-01-17T10:20:08.648Z,56.68
2023-01-17T10:21:08.648Z,57.22
2023-01-17T10:22:08.630Z,56.87
2023-01-17T10:23:08.657Z,58.02
2023-01-17T10:24:08.721Z,58.97
2023-01-17T10:25:08.613Z,54.06
2023-01-17T10:26:08.597Z,56.51
2023-01-17T10:27:08.624Z,56.72
2023-01-17T10:28:08.603Z,57.36
2023-01-17T10:29:08.653Z,57.43
2023-01-17T10:30:08.601Z,56.45
2023-01-17T10:31:08.600Z,58.76
2023-01-17T10:32:08.590Z,59.42
2023-01-17T10:33:08.584Z,57.69
2023-01-17T10:34:08.554Z,57.51
2023-01-17T10:35:08.581Z,59.27
2023-01-17T10:36:08.551Z,59.21
2023-01-17T10:37:08.549Z,57.59
2023-01-17T10:38:08.564Z,58.40
2023-01-17T10:39:08.547Z,58.03
2023-01-17T10:40:08.554Z,60.68
2023-01-17T10:41:08.517Z,58.80
2023-01-17T10:42:08.504Z,58.40
2023-01-17T10:43:08.500Z,59.66
2023-01-17T10:44:08.472Z,59.38
2023-01-17T10:45:08.488Z,59.68
2023-01-17T10:46:08.577Z,57.38
2023-01-17T10:47:08.484Z,58.71
2023-01-17T10:48:08.454Z,58.62
2023-01-17T10:49:08.444Z,59.18
2023-01-17T10:50:08.438Z,59.17
2023-01-17T10:51:08.453Z,60.81
2023-01-17T10:52:08.464Z,64.27
2023-01-17T10:53:08.403Z,58.96
2023-01-17T10:54:08.426Z,60.29
2023-01-17T10:55:08.418Z,59.43
2023-01-17T10:56:09.418Z,60.44
2023-01-17T10:57:08.406Z,59.19
2023-01-17T10:58:08.377Z,58.22
2023-01-17T10:59:08.395Z,57.86
2023-01-17T11:00:08.392Z,59.11
2023-01-17T11:01:08.479Z,59.97
2023-01-17T11:02:08.419Z,61.28
2023-01-17T11:03:08.432Z,58.73
2023-01-17T11:04:08.356Z,59.24
2023-01-17T11:05:08.369Z,60.29
2023-01-17T11:06:08.352Z,58.31
2023-01-17T11:07:08.360Z,58.51
2023-01-17T11:08:08.324Z,57.70
2023-01-17T11:09:08.309Z,56.75
2023-01-17T11:10:08.309Z,57.56
2023-01-17T11:11:08.297Z,58.85
2023-01-17T11:12:08.297Z,59.47
2023-01-17T11:13:08.301Z,58.00
2023-01-17T11:14:08.286Z,57.56
2023-01-17T11:15:08.288Z,57.85
2023-01-17T11:16:08.360Z,56.33
2023-01-17T11:17:08.275Z,57.17
2023-01-17T11:18:08.274Z,59.12
2023-01-17T11:19:08.240Z,58.29
2023-01-17T11:20:08.269Z,56.14
2023-01-17T11:21:08.228Z,55.62
2023-01-17T11:22:08.224Z,57.05
2023-01-17T11:23:08.230Z,57.04
2023-01-17T11:24:08.227Z,56.51
2023-01-17T11:25:08.208Z,55.88
2023-01-17T11:26:09.200Z,57.23
2023-01-17T11:27:08.197Z,55.20
2023-01-17T11:28:08.197Z,54.04
2023-01-17T11:29:08.264Z,56.36
2023-01-17T11:30:08.188Z,56.48
2023-01-17T11:31:08.254Z,57.88
2023-01-17T11:32:08.152Z,56.43
2023-01-17T11:33:08.151Z,56.65
2023-01-17T11:34:08.160Z,58.43
2023-01-17T11:35:08.243Z,57.39
2023-01-17T11:36:08.144Z,57.18
2023-01-17T11:37:08.142Z,57.47
2023-01-17T11:38:08.138Z,56.72
2023-01-17T11:39:08.112Z,56.71
2023-01-17T11:40:08.109Z,58.64
2023-01-17T11:41:08.134Z,59.17
2023-01-17T11:42:08.096Z,57.54
2023-01-17T11:43:08.112Z,57.24
2023-01-17T11:44:08.083Z,58.20
2023-01-17T11:45:08.086Z,57.30
2023-01-17T11:46:08.122Z,56.95
2023-01-17T11:47:08.102Z,55.96
2023-01-17T11:48:08.075Z,55.62
2023-01-17T11:49:08.076Z,56.03
2023-01-17T11:50:08.042Z,56.32
2023-01-17T11:51:08.045Z,56.72
2023-01-17T11:52:08.047Z,57.12
2023-01-17T11:53:08.028Z,57.94
2023-01-17T11:54:08.012Z,57.29
2023-01-17T11:55:08.012Z,55.78
2023-01-17T11:56:08.042Z,57.23
2023-01-17T11:57:08.017Z,56.22
2023-01-17T11:58:07.983Z,56.21
2023-01-17T11:59:07.995Z,55.89
2023-01-17T12:00:07.981Z,57.24
2023-01-17T12:01:08.050Z,56.89
2023-01-17T12:02:07.982Z,57.83
2023-01-17T12:03:07.959Z,57.62
2023-01-17T12:04:08.001Z,57.72
2023-01-17T12:05:07.981Z,57.22
2023-01-17T12:06:07.944Z,56.99
2023-01-17T12:07:07.960Z,55.71
2023-01-17T12:08:07.946Z,56.96
2023-01-17T12:09:08.020Z,57.89
2023-01-17T12:10:07.928Z,57.98
2023-01-17T12:11:07.912Z,57.95
2023-01-17T12:12:07.925Z,60.33
2023-01-17T12:13:07.903Z,59.92
2023-01-17T12:14:07.926Z,56.68
2023-01-17T12:15:07.895Z,56.57
2023-01-17T12:16:08.058Z,54.77
2023-01-17T12:17:07.900Z,58.01
2023-01-17T12:18:07.872Z,56.28
2023-01-17T12:19:07.870Z,58.71
2023-01-17T12:20:07.852Z,56.94
2023-01-17T12:21:07.852Z,57.84
2023-01-17T12:22:07.874Z,56.80
2023-01-17T12:23:07.859Z,56.82
2023-01-17T12:24:07.845Z,58.71
2023-01-17T12:25:07.819Z,56.16
2023-01-17T12:26:07.815Z,57.78
2023-01-17T12:27:08.978Z,57.94
2023-01-17T12:28:07.808Z,56.38
2023-01-17T12:29:07.804Z,57.15
2023-01-17T12:30:07.800Z,60.25
2023-01-17T12:31:07.789Z,56.67
2023-01-17T12:32:07.784Z,56.97
2023-01-17T12:33:07.791Z,58.14
2023-01-17T12:34:08.152Z,58.41
2023-01-17T12:35:07.771Z,58.85
2023-01-17T12:36:07.783Z,58.63
2023-01-17T12:37:07.757Z,57.63
2023-01-17T12:38:07.746Z,57.97
2023-01-17T12:39:07.770Z,58.54
2023-01-17T12:40:07.731Z,57.55
2023-01-17T12:41:07.730Z,58.66
2023-01-17T12:42:07.716Z,57.03
2023-01-17T12:43:07.716Z,59.67
2023-01-17T12:44:07.736Z,57.70
2023-01-17T12:45:07.687Z,57.32
2023-01-17T12:46:07.686Z,56.49
2023-01-17T12:47:07.675Z,58.01
2023-01-17T12:48:07.672Z,58.17
2023-01-17T12:49:07.688Z,59.14
2023-01-17T12:50:07.672Z,61.10
2023-01-17T12:51:07.687Z,59.03
2023-01-17T12:52:07.651Z,58.91